Time;durP1;ratioP1;P1;durP2;ratioP2;P2;SDS_P1;SDS_P2;PMS_P1;PMS_P2;Temp;Humidity;BMP_temperature;BMP_pressure;BME280_temperature;BME280_humidity;BME280_pressure;Samples;Min_cycle;Max_cycle;Signal;HPM_P1;HPM_P2
2023/09/05 00:02:25;;;;;;;2.90;2.70;;;;;;;17.41;100.00;94782.59;5052248;28;20671;-44
2023/09/05 00:04:55;;;;;;;2.70;2.50;;;;;;;17.42;100.00;94779.03;5052244;28;20187;-44
2023/09/05 00:07:22;;;;;;;3.00;2.40;;;;;;;17.41;100.00;94780.00;5052681;28;20179;-42
2023/09/05 00:09:50;;;;;;;2.87;2.67;;;;;;;17.39;100.00;94778.56;5051888;28;20198;-44
2023/09/05 00:12:17;;;;;;;2.27;2.17;;;;;;;17.41;100.00;94781.78;5052539;28;20191;-44
2023/09/05 00:14:44;;;;;;;2.60;2.40;;;;;;;17.37;100.00;94771.00;5052183;28;20199;-44
2023/09/05 00:17:10;;;;;;;2.63;2.43;;;;;;;17.40;100.00;94772.41;5052535;28;20183;-46
2023/09/05 00:19:37;;;;;;;2.70;2.50;;;;;;;17.35;100.00;94765.19;5051976;28;20210;-45
2023/09/05 00:22:04;;;;;;;2.63;2.43;;;;;;;17.36;100.00;94760.81;5052402;28;20194;-44
2023/09/05 00:24:32;;;;;;;2.93;2.70;;;;;;;17.32;100.00;94754.44;5051983;28;20211;-45
2023/09/05 00:27:03;;;;;;;2.50;2.30;;;;;;;17.33;100.00;94754.25;5052167;28;20587;-45
2023/09/05 00:29:31;;;;;;;2.20;2.10;;;;;;;17.33;100.00;94753.44;5051647;28;20234;-42
2023/09/05 00:31:59;;;;;;;2.83;2.63;;;;;;;17.38;100.00;94766.63;5052050;28;20248;-44
2023/09/05 00:34:28;;;;;;;2.63;2.43;;;;;;;17.38;100.00;94762.25;5051802;28;20202;-44
2023/09/05 00:36:55;;;;;;;3.47;2.27;;;;;;;17.42;100.00;94757.53;5051825;28;20221;-44
2023/09/05 00:39:21;;;;;;;2.10;2.00;;;;;;;17.41;100.00;94751.56;5051581;28;20199;-45
2023/09/05 00:41:48;;;;;;;3.87;2.10;;;;;;;17.43;100.00;94754.78;5051771;28;20666;-44
2023/09/05 00:44:17;;;;;;;2.10;2.00;;;;;;;17.43;100.00;94751.38;5052012;28;20219;-44
2023/09/05 00:46:46;;;;;;;2.40;2.20;;;;;;;17.42;100.00;94754.97;5051500;28;20198;-46
2023/09/05 00:49:15;;;;;;;2.07;1.97;;;;;;;17.42;100.00;94749.78;5051859;28;20273;-44
2023/09/05 00:51:45;;;;;;;1.90;1.80;;;;;;;17.43;100.00;94754.78;5051144;28;20266;-44
2023/09/05 00:54:13;;;;;;;1.87;1.77;;;;;;;17.43;100.00;94754.78;5051687;28;20179;-44
2023/09/05 00:56:40;;;;;;;1.93;1.83;;;;;;;17.43;100.00;94748.81;5049949;28;20304;-44
2023/09/05 00:59:06;;;;;;;2.13;2.03;;;;;;;17.43;100.00;94749.59;5052035;28;20800;-44
2023/09/05 01:01:35;;;;;;;1.90;1.80;;;;;;;17.45;100.00;94745.06;5051069;28;20251;-43
2023/09/05 01:04:02;;;;;;;1.93;1.83;;;;;;;17.48;100.00;94749.06;5051354;28;20227;-44
2023/09/05 01:06:41;;;;;;;2.10;2.00;;;;;;;17.50;100.00;94747.13;5050854;28;20570;-44
2023/09/05 01:09:21;;;;;;;2.00;1.90;;;;;;;17.51;100.00;94743.53;5051211;28;20198;-44
2023/09/05 01:11:48;;;;;;;2.10;2.00;;;;;;;17.47;100.00;94737.13;5051203;28;20547;-45
2023/09/05 01:14:15;;;;;;;2.50;2.10;;;;;;;17.54;100.00;94749.16;5051103;28;20649;-42
2023/09/05 01:16:44;;;;;;;2.50;2.30;;;;;;;17.58;100.00;94752.19;5050674;28;20571;-43
2023/09/05 01:19:14;;;;;;;3.00;2.23;;;;;;;17.59;100.00;94753.78;5051143;28;20194;-45
2023/09/05 01:22:00;;;;;;;2.50;2.30;;;;;;;17.59;100.00;94761.56;5050704;28;20675;-44
2023/09/05 01:24:28;;;;;;;2.83;2.03;;;;;;;17.63;100.00;94767.19;5050926;28;20230;-44
2023/09/05 01:26:56;;;;;;;2.57;2.37;;;;;;;17.66;100.00;94764.22;5050725;28;20191;-44
2023/09/05 01:29:30;;;;;;;2.33;2.23;;;;;;;17.64;100.00;94764.41;5050659;28;20230;-45
2023/09/05 01:31:59;;;;;;;2.40;2.20;;;;;;;17.63;100.00;94762.81;5051010;28;20195;-44
2023/09/05 01:34:26;;;;;;;2.30;1.87;;;;;;;17.68;100.00;94765.66;5050817;28;20195;-44
2023/09/05 01:36:53;;;;;;;2.27;2.07;;;;;;;17.69;100.00;94749.13;5050539;28;20218;-43
2023/09/05 01:39:20;;;;;;;2.20;2.10;;;;;;;17.69;100.00;94751.72;5049279;28;20191;-43
2023/09/05 01:41:50;;;;;;;2.80;2.03;;;;;;;17.70;100.00;94749.94;5050142;28;20294;-44
2023/09/05 01:44:20;;;;;;;2.57;2.40;;;;;;;17.68;100.00;94744.97;5050370;28;20215;-44
2023/09/05 01:46:46;;;;;;;2.03;1.93;;;;;;;17.70;100.00;94737.84;5050563;28;20187;-44
2023/09/05 01:49:13;;;;;;;2.40;2.20;;;;;;;17.70;100.00;94742.19;5050984;28;20194;-44
2023/09/05 01:51:40;;;;;;;2.30;2.20;;;;;;;17.70;100.00;94737.00;5050178;28;20290;-45
2023/09/05 01:54:07;;;;;;;2.20;2.10;;;;;;;17.71;100.00;94729.09;5050432;28;20210;-45
2023/09/05 01:56:34;;;;;;;2.10;2.00;;;;;;;17.68;100.00;94726.06;5049959;28;20191;-45
2023/09/05 01:59:02;;;;;;;3.03;2.43;;;;;;;17.70;100.00;94737.84;5050322;28;20659;-45
2023/09/05 02:01:32;;;;;;;2.40;2.20;;;;;;;17.69;100.00;94738.78;5050153;28;20270;-44
2023/09/05 02:03:58;;;;;;;2.50;2.30;;;;;;;17.68;100.00;94746.75;5032576;28;20223;-44
2023/09/05 02:06:25;;;;;;;3.53;2.43;;;;;;;17.68;100.00;94739.78;5049576;28;20187;-43
2023/09/05 02:08:52;;;;;;;2.70;2.50;;;;;;;17.54;100.00;94725.09;5049589;28;20195;-45
2023/09/05 02:11:19;;;;;;;3.70;2.60;;;;;;;17.65;100.00;94747.91;5049871;28;20222;-44
2023/09/05 02:13:46;;;;;;;2.40;2.20;;;;;;;17.61;100.00;94756.19;5050183;28;20261;-43
2023/09/05 02:16:19;;;;;;;2.33;2.23;;;;;;;17.58;100.00;94746.22;5049500;28;20257;-43
2023/09/05 02:18:47;;;;;;;3.00;2.80;;;;;;;17.58;100.00;94754.00;5049670;28;20769;-44
2023/09/05 02:21:15;;;;;;;3.00;2.80;;;;;;;17.56;100.00;94762.69;5049965;28;20215;-43
2023/09/05 02:23:42;;;;;;;3.20;2.90;;;;;;;17.56;100.00;94764.50;5049137;28;20233;-44
2023/09/05 02:26:10;;;;;;;3.73;3.43;;;;;;;17.58;100.00;94766.91;5049898;28;20206;-43
2023/09/05 02:28:37;;;;;;;3.43;2.83;;;;;;;17.56;100.00;94767.88;5049498;28;20188;-43
2023/09/05 02:31:06;;;;;;;3.77;3.47;;;;;;;17.57;100.00;94766.09;5049399;28;20227;-44
2023/09/05 02:33:36;;;;;;;3.30;3.00;;;;;;;17.41;100.00;94746.41;5031387;28;20282;-44
2023/09/05 02:36:08;;;;;;;3.70;3.20;;;;;;;17.52;100.00;94763.25;5049929;28;20194;-44
2023/09/05 02:38:35;;;;;;;3.97;3.00;;;;;;;17.51;100.00;94764.22;5049632;28;20190;-44
2023/09/05 02:41:02;;;;;;;3.70;3.40;;;;;;;17.48;100.00;94762.78;5049538;28;20206;-44
2023/09/05 02:43:29;;;;;;;3.83;3.53;;;;;;;17.49;100.00;94759.25;5049563;28;20283;-45
2023/09/05 02:45:55;;;;;;;3.43;3.20;;;;;;;17.50;100.00;94758.25;5049719;28;20591;-44
2023/09/05 02:48:22;;;;;;;4.07;3.77;;;;;;;17.51;100.00;94754.69;5049326;28;20268;-44
2023/09/05 02:51:01;;;;;;;4.27;3.97;;;;;;;17.50;100.00;94766.00;5049669;28;20195;-44
2023/09/05 02:53:28;;;;;;;4.47;4.00;;;;;;;17.47;100.00;94750.84;5049129;28;20187;-44
2023/09/05 02:55:57;;;;;;;4.87;4.17;;;;;;;17.47;100.00;94758.59;5049189;28;20191;-44
2023/09/05 02:58:26;;;;;;;4.63;4.13;;;;;;;17.47;100.00;94750.06;5048878;28;20191;-44
2023/09/05 03:00:58;;;;;;;5.57;3.83;;;;;;;17.43;100.00;94744.44;5049137;28;20194;-43
2023/09/05 03:03:24;;;;;;;5.73;5.10;;;;;;;17.45;100.00;94758.00;5048779;28;20194;-44
2023/09/05 03:05:53;;;;;;;5.13;4.20;;;;;;;17.42;100.00;94768.69;5049119;28;20185;-45
2023/09/05 03:08:20;;;;;;;4.87;4.47;;;;;;;17.40;100.00;94773.25;5048328;28;20187;-44
2023/09/05 03:10:50;;;;;;;4.87;4.47;;;;;;;17.26;100.00;94748.16;5048637;28;20194;-44
2023/09/05 03:13:17;;;;;;;7.07;4.50;;;;;;;17.38;100.00;94775.19;5048890;28;20670;-44
2023/09/05 03:15:44;;;;;;;5.67;5.17;;;;;;;17.35;100.00;94765.19;5049066;28;20187;-45
2023/09/05 03:18:12;;;;;;;4.83;4.43;;;;;;;17.35;100.00;94769.56;5049361;28;20191;-46
2023/09/05 03:20:43;;;;;;;4.90;4.50;;;;;;;17.32;100.00;94768.16;5053268;28;20191;-44
2023/09/05 03:23:11;;;;;;;5.70;5.27;;;;;;;17.33;100.00;94774.13;5053218;28;20198;-44
2023/09/05 03:25:38;;;;;;;5.20;4.80;;;;;;;17.34;100.00;94783.47;5052962;28;20706;-45
2023/09/05 03:28:07;;;;;;;5.27;4.63;;;;;;;17.33;100.00;94780.09;5053086;28;20256;-44
2023/09/05 03:30:33;;;;;;;5.53;5.03;;;;;;;17.34;100.00;94788.66;5052912;28;20234;-46
2023/09/05 03:33:00;;;;;;;5.63;4.83;;;;;;;17.35;100.00;94795.41;5053269;28;20191;-45
2023/09/05 03:35:27;;;;;;;6.10;5.03;;;;;;;17.36;100.00;94794.44;5052739;28;20202;-44
2023/09/05 03:37:54;;;;;;;5.60;5.10;;;;;;;17.38;100.00;94803.63;5052799;28;20218;-44
2023/09/05 03:40:25;;;;;;;5.37;4.97;;;;;;;17.40;100.00;94803.44;5052629;28;20198;-44
2023/09/05 03:42:54;;;;;;;5.60;5.10;;;;;;;17.41;100.00;94808.44;5053128;28;20187;-45
2023/09/05 03:45:23;;;;;;;5.70;5.20;;;;;;;17.42;100.00;94809.25;5052713;28;20725;-44
2023/09/05 03:47:50;;;;;;;6.10;5.50;;;;;;;17.38;100.00;94795.06;5052849;28;20667;-45
2023/09/05 03:50:17;;;;;;;7.47;5.60;;;;;;;17.43;100.00;94809.06;5052797;28;20184;-45
2023/09/05 03:52:44;;;;;;;6.40;5.80;;;;;;;17.35;100.00;94788.47;5052745;28;20294;-44
2023/09/05 03:55:11;;;;;;;7.83;6.13;;;;;;;17.40;100.00;94804.28;5052440;28;20203;-45
2023/09/05 03:57:39;;;;;;;7.97;7.17;;;;;;;17.41;100.00;94808.44;5052503;28;20192;-44
2023/09/05 04:00:09;;;;;;;6.80;6.20;;;;;;;17.17;100.00;94767.31;5052496;28;20206;-46
2023/09/05 04:02:37;;;;;;;9.73;6.83;;;;;;;17.34;100.00;94786.88;5052719;28;20199;-42
2023/09/05 04:05:04;;;;;;;9.23;7.57;;;;;;;17.29;100.00;94792.56;5052363;28;20222;-43
2023/09/05 04:07:32;;;;;;;11.03;7.23;;;;;;;17.27;100.00;94798.88;5052198;28;20198;-45
2023/09/05 04:09:59;;;;;;;10.37;9.27;;;;;;;17.25;100.00;94790.50;5052573;28;20199;-44
2023/09/05 04:12:26;;;;;;;9.23;8.30;;;;;;;17.25;100.00;94799.06;5051983;28;20199;-44
2023/09/05 04:14:54;;;;;;;9.23;8.37;;;;;;;17.16;100.00;94778.66;5052573;28;20183;-45
2023/09/05 04:17:21;;;;;;;10.30;9.20;;;;;;;17.28;100.00;94797.91;5052091;28;20179;-42
2023/09/05 04:19:52;;;;;;;10.30;9.30;;;;;;;17.33;100.00;94803.34;5052165;28;20678;-44
2023/09/05 04:22:20;;;;;;;10.67;8.13;;;;;;;17.38;100.00;94808.78;5052314;28;20198;-45
2023/09/05 04:24:51;;;;;;;9.67;8.40;;;;;;;17.40;100.00;94806.03;5052307;28;20632;-45
2023/09/05 04:27:25;;;;;;;9.33;8.43;;;;;;;17.45;100.00;94811.50;5051797;28;20203;-44
2023/09/05 04:29:54;;;;;;;10.10;9.10;;;;;;;17.50;99.99;94814.34;5051827;28;20230;-45
2023/09/05 04:32:26;;;;;;;10.73;9.03;;;;;;;17.51;100.00;94811.56;5034181;28;20210;-43
2023/09/05 04:34:53;;;;;;;10.83;9.67;;;;;;;17.50;100.00;94804.81;5051788;28;20203;-44
2023/09/05 04:37:20;;;;;;;10.63;9.43;;;;;;;17.52;100.00;94802.81;5034161;28;20187;-47
2023/09/05 04:39:47;;;;;;;10.40;9.33;;;;;;;17.58;99.73;94808.28;5051788;28;20194;-44
2023/09/05 04:42:14;;;;;;;11.53;10.33;;;;;;;17.64;99.21;94803.19;5051800;28;20195;-45
2023/09/05 04:44:40;;;;;;;8.77;7.97;;;;;;;17.65;99.22;94804.00;5051651;28;20218;-44
2023/09/05 04:47:22;;;;;;;9.53;8.63;;;;;;;17.60;98.94;94796.78;5051071;28;20264;-44
2023/09/05 04:49:49;;;;;;;10.47;9.37;;;;;;;17.62;98.90;94807.75;5051859;28;20235;-45
2023/09/05 04:52:17;;;;;;;11.47;9.53;;;;;;;17.66;98.78;94809.00;5051282;28;20202;-44
2023/09/05 04:54:45;;;;;;;11.27;9.37;;;;;;;17.66;98.61;94796.06;5051568;28;20244;-45
2023/09/05 04:57:12;;;;;;;10.27;9.17;;;;;;;17.68;98.23;94790.72;5051107;28;20214;-44
2023/09/05 04:59:39;;;;;;;10.60;9.03;;;;;;;17.76;97.77;94799.22;5051217;28;20213;-45
2023/09/05 05:02:06;;;;;;;11.93;10.60;;;;;;;17.76;97.95;94801.00;5050683;28;20202;-47
2023/09/05 05:04:35;;;;;;;14.17;10.47;;;;;;;17.80;97.99;94799.66;5051560;28;20230;-45
2023/09/05 05:07:02;;;;;;;10.97;9.90;;;;;;;17.86;97.85;94806.69;5033419;28;20187;-44
2023/09/05 05:09:28;;;;;;;11.97;9.87;;;;;;;17.91;97.62;94806.16;5051217;28;20570;-45
2023/09/05 05:11:55;;;;;;;12.67;10.43;;;;;;;18.00;97.36;94807.66;5051038;28;20645;-45
2023/09/05 05:14:22;;;;;;;10.30;9.40;;;;;;;18.01;96.85;94815.25;5050937;28;20290;-43
2023/09/05 05:16:49;;;;;;;10.37;9.37;;;;;;;17.91;96.69;94790.63;5051361;28;20575;-44
2023/09/05 05:19:16;;;;;;;12.73;11.33;;;;;;;18.03;96.61;94813.28;5050979;28;20590;-46
2023/09/05 05:21:44;;;;;;;10.87;9.77;;;;;;;18.14;96.64;94819.00;5050855;28;20202;-46
2023/09/05 05:24:11;;;;;;;11.90;10.37;;;;;;;18.18;96.01;94823.63;5050882;28;20566;-45
2023/09/05 05:26:38;;;;;;;11.27;10.10;;;;;;;18.05;95.42;94802.78;5050871;28;20194;-47
2023/09/05 05:29:05;;;;;;;11.30;9.63;;;;;;;18.13;95.14;94809.59;5050433;28;20580;-43
2023/09/05 05:31:33;;;;;;;11.67;9.67;;;;;;;18.21;94.59;94823.25;5050722;28;20198;-44
2023/09/05 05:34:00;;;;;;;12.67;10.47;;;;;;;18.16;94.00;94812.66;5050795;28;20202;-41
2023/09/05 05:36:30;;;;;;;10.37;9.37;;;;;;;18.19;93.93;94809.69;5051041;28;20670;-45
2023/09/05 05:38:59;;;;;;;9.43;8.50;;;;;;;18.31;93.55;94807.44;5050692;28;20194;-45
2023/09/05 05:41:26;;;;;;;13.20;10.27;;;;;;;18.35;93.78;94824.22;5050166;28;20195;-43
2023/09/05 05:43:53;;;;;;;13.30;10.07;;;;;;;18.42;93.58;94830.25;5050224;28;20203;-43
2023/09/05 05:46:20;;;;;;;12.27;10.93;;;;;;;18.49;93.49;94835.53;5050522;28;20253;-44
2023/09/05 05:48:47;;;;;;;11.83;10.60;;;;;;;18.34;93.73;94811.44;5050296;28;20236;-42
2023/09/05 05:51:14;;;;;;;11.13;9.67;;;;;;;18.45;93.23;94826.53;5049901;28;20263;-43
2023/09/05 05:53:42;;;;;;;12.77;10.77;;;;;;;18.35;93.80;94805.28;5050571;28;20202;-44
2023/09/05 05:56:11;;;;;;;12.60;11.20;;;;;;;18.48;93.48;94823.53;5048436;28;20191;-44
2023/09/05 05:58:38;;;;;;;17.73;10.20;;;;;;;18.49;92.81;94833.75;5050320;28;20215;-43
2023/09/05 06:01:06;;;;;;;11.20;10.10;;;;;;;18.62;92.57;94827.09;5050397;28;20199;-41
2023/09/05 06:03:34;;;;;;;11.70;10.50;;;;;;;18.70;91.84;94832.19;5050310;28;20734;-44
2023/09/05 06:06:01;;;;;;;13.13;11.30;;;;;;;18.62;92.22;94834.88;5049611;28;20268;-43
2023/09/05 06:08:28;;;;;;;11.27;10.07;;;;;;;18.60;92.22;94831.66;5050104;28;20278;-41
2023/09/05 06:10:56;;;;;;;11.70;10.60;;;;;;;18.37;91.98;94795.56;5049864;28;20198;-42
2023/09/05 06:13:24;;;;;;;11.57;10.33;;;;;;;18.49;91.95;94820.78;5050134;28;20190;-45
2023/09/05 06:15:51;;;;;;;12.40;11.23;;;;;;;18.44;91.42;94812.78;5050025;28;20190;-44
2023/09/05 06:18:18;;;;;;;13.47;11.13;;;;;;;18.55;91.30;94837.38;5050205;28;20191;-46
2023/09/05 06:20:45;;;;;;;13.40;10.70;;;;;;;18.52;91.76;94832.56;5049973;28;20187;-46
2023/09/05 06:23:12;;;;;;;12.27;11.07;;;;;;;18.46;92.02;94818.56;5050178;28;20187;-46
2023/09/05 06:25:39;;;;;;;11.90;10.63;;;;;;;18.53;91.76;94823.81;5050020;28;20226;-44
2023/09/05 06:28:06;;;;;;;12.23;10.93;;;;;;;18.56;91.75;94839.78;5049638;28;20282;-44
2023/09/05 06:30:34;;;;;;;10.80;9.80;;;;;;;18.52;91.31;94828.19;5049694;28;20371;-45
2023/09/05 06:33:01;;;;;;;13.93;10.27;;;;;;;18.50;91.11;94832.75;5049784;28;20663;-44
2023/09/05 06:35:28;;;;;;;15.57;12.00;;;;;;;18.51;91.41;94833.53;5049478;28;20191;-45
2023/09/05 06:37:55;;;;;;;11.73;10.70;;;;;;;18.48;91.75;94839.91;5050514;28;20210;-44
2023/09/05 06:40:23;;;;;;;11.47;10.37;;;;;;;18.53;92.18;94844.53;5049717;28;20675;-45
2023/09/05 06:42:51;;;;;;;14.20;10.60;;;;;;;18.51;92.02;94849.09;5049513;28;20410;-44
2023/09/05 06:45:17;;;;;;;14.00;10.27;;;;;;;18.39;92.22;94842.78;5049785;28;20293;-45
2023/09/05 06:47:46;;;;;;;10.80;9.70;;;;;;;18.34;92.68;94837.34;5049418;28;20178;-42
2023/09/05 06:50:12;;;;;;;12.17;10.53;;;;;;;18.39;93.19;94847.94;5049990;28;20187;-43
2023/09/05 06:52:39;;;;;;;14.17;10.60;;;;;;;18.29;93.53;94849.03;5048884;28;20643;-45
2023/09/05 06:55:06;;;;;;;13.80;10.03;;;;;;;18.24;93.51;94850.56;5049334;28;20211;-43
2023/09/05 06:57:34;;;;;;;12.87;9.90;;;;;;;18.34;93.68;94842.53;5049105;28;20206;-43
2023/09/05 07:00:00;;;;;;;10.07;9.07;;;;;;;18.36;92.70;94843.16;5049595;28;20555;-46
2023/09/05 07:02:27;;;;;;;10.40;9.03;;;;;;;18.34;92.62;94820.00;5049667;28;20194;-46
2023/09/05 07:04:55;;;;;;;10.67;9.67;;;;;;;18.53;92.18;94847.94;5049007;28;20288;-43
2023/09/05 07:07:22;;;;;;;10.83;9.20;;;;;;;18.48;91.51;94844.25;5049368;28;20200;-44
2023/09/05 07:09:49;;;;;;;9.77;8.87;;;;;;;18.59;90.97;94848.97;5049134;28;20199;-44
2023/09/05 07:12:16;;;;;;;10.13;9.17;;;;;;;18.70;90.42;94860.69;5049637;28;20198;-45
2023/09/05 07:14:44;;;;;;;10.20;8.77;;;;;;;18.59;90.53;94867.13;5049350;28;20192;-45
2023/09/05 07:17:10;;;;;;;9.90;8.90;;;;;;;18.68;90.20;94870.41;5049331;28;20237;-45
2023/09/05 07:19:37;;;;;;;11.00;8.67;;;;;;;18.74;90.09;94867.13;5048947;28;20186;-46
2023/09/05 07:22:07;;;;;;;10.13;8.03;;;;;;;18.58;89.73;94844.78;5049442;28;20269;-45
2023/09/05 07:24:33;;;;;;;10.57;8.83;;;;;;;18.90;88.99;94877.22;5048823;28;20195;-46
2023/09/05 07:27:00;;;;;;;9.33;7.83;;;;;;;18.54;88.37;94809.88;5049022;28;20222;-44
2023/09/05 07:29:27;;;;;;;9.90;8.67;;;;;;;19.01;88.28;94879.34;5048652;28;20227;-45
2023/09/05 07:31:54;;;;;;;14.00;8.90;;;;;;;19.04;88.25;94880.75;5048988;28;20203;-44
2023/09/05 07:34:21;;;;;;;8.67;7.83;;;;;;;19.00;88.19;94884.72;5048926;28;20213;-45
2023/09/05 07:36:47;;;;;;;12.40;8.20;;;;;;;18.94;88.08;94901.78;5049425;28;20203;-44
2023/09/05 07:39:16;;;;;;;10.67;8.30;;;;;;;18.87;88.48;94893.16;5048986;28;20268;-45
2023/09/05 07:41:42;;;;;;;13.13;8.33;;;;;;;18.83;88.68;94906.69;5048830;28;20656;-45
2023/09/05 07:44:09;;;;;;;8.47;7.67;;;;;;;18.72;88.86;94906.16;5049175;28;20555;-45
2023/09/05 07:46:36;;;;;;;10.20;7.63;;;;;;;18.68;89.35;94907.47;5048670;28;20694;-45
2023/09/05 07:49:04;;;;;;;11.33;7.70;;;;;;;18.61;89.67;94904.00;5049124;28;20258;-44
2023/09/05 07:51:30;;;;;;;10.90;8.23;;;;;;;18.55;89.95;94915.09;5049244;28;20205;-45
2023/09/05 07:54:04;;;;;;;9.07;8.17;;;;;;;18.50;90.75;94905.25;5049074;28;20194;-44
2023/09/05 07:56:33;;;;;;;11.03;9.37;;;;;;;18.44;90.89;94908.59;5049009;28;20222;-45
2023/09/05 07:59:00;;;;;;;10.70;9.63;;;;;;;18.44;90.82;94905.19;5049028;28;20195;-46
2023/09/05 08:01:26;;;;;;;10.60;8.23;;;;;;;18.40;91.10;94903.97;5048700;28;20195;-44
2023/09/05 08:03:53;;;;;;;9.37;8.43;;;;;;;18.41;91.08;94905.56;5048888;28;20340;-45
2023/09/05 08:06:21;;;;;;;10.20;8.30;;;;;;;18.38;91.16;94904.13;5051918;28;20237;-45
2023/09/05 08:08:47;;;;;;;8.80;8.00;;;;;;;18.44;91.35;94910.38;5052571;28;20276;-44
2023/09/05 08:11:14;;;;;;;8.57;7.77;;;;;;;18.45;90.97;94879.13;5052146;28;20249;-45
2023/09/05 08:13:42;;;;;;;10.87;8.37;;;;;;;18.36;89.94;94833.59;5052457;28;20628;-45
2023/09/05 08:16:10;;;;;;;9.23;7.93;;;;;;;19.14;88.34;94896.81;5052262;28;20199;-44
2023/09/05 08:18:37;;;;;;;9.07;7.93;;;;;;;19.40;86.95;94903.22;5052415;28;20194;-44
2023/09/05 08:21:04;;;;;;;15.70;7.83;;;;;;;19.52;85.63;94907.72;5052477;28;20574;-44
2023/09/05 08:23:32;;;;;;;16.05;7.60;;;;;;;19.14;85.04;94826.81;5052034;28;20577;-44
2023/09/05 08:25:59;;;;;;;12.48;7.70;;;;;;;19.79;85.05;94908.75;5052059;28;20254;-43
2023/09/05 08:28:27;;;;;;;8.02;7.20;;;;;;;20.14;84.03;94919.16;5051882;28;20303;-44
2023/09/05 08:31:00;;;;;;;11.02;8.02;;;;;;;20.35;82.17;94922.66;5034559;28;20482;-45
2023/09/05 08:33:28;;;;;;;8.32;7.45;;;;;;;20.42;81.49;94902.69;5051745;28;20229;-46
2023/09/05 08:35:56;;;;;;;9.80;6.97;;;;;;;20.68;80.42;94912.41;5033869;28;20207;-44
2023/09/05 08:38:22;;;;;;;8.52;7.30;;;;;;;20.85;79.85;94918.88;5051999;28;20191;-45
2023/09/05 08:40:49;;;;;;;8.27;7.43;;;;;;;20.91;78.45;94912.91;5052062;28;20206;-45
2023/09/05 08:43:17;;;;;;;8.90;6.53;;;;;;;21.00;77.16;94923.94;5051508;28;20191;-45
2023/09/05 08:45:46;;;;;;;8.00;7.05;;;;;;;21.01;77.25;94922.94;5051664;28;20250;-46
2023/09/05 08:48:14;;;;;;;10.20;7.28;;;;;;;21.01;77.72;94917.72;5051565;28;20283;-45
2023/09/05 08:50:42;;;;;;;7.25;6.50;;;;;;;20.95;76.73;94921.13;5051537;28;20639;-45
2023/09/05 08:53:11;;;;;;;8.02;6.47;;;;;;;21.07;76.11;94922.16;5051478;28;20283;-44
2023/09/05 08:55:40;;;;;;;7.65;6.60;;;;;;;21.04;75.67;94928.56;5051898;28;20198;-45
2023/09/05 08:58:10;;;;;;;8.32;6.07;;;;;;;21.06;75.87;94923.13;5051193;28;20234;-45
2023/09/05 09:00:37;;;;;;;7.18;6.35;;;;;;;21.11;75.03;94902.53;5051715;28;20569;-44
2023/09/05 09:03:06;;;;;;;6.95;5.95;;;;;;;21.28;73.34;94926.38;5051657;28;20230;-46
2023/09/05 09:05:35;;;;;;;8.40;6.00;;;;;;;21.35;73.14;94919.44;5051437;28;20607;-45
2023/09/05 09:08:02;;;;;;;9.65;5.68;;;;;;;21.60;72.01;94921.44;5051696;28;20187;-45
2023/09/05 09:10:29;;;;;;;6.63;5.35;;;;;;;21.64;71.94;94925.25;5051153;28;20647;-43
2023/09/05 09:13:13;;;;;;;5.82;5.28;;;;;;;21.72;71.94;94915.44;5051257;28;20675;-44
2023/09/05 09:15:43;;;;;;;8.05;5.30;;;;;;;21.79;70.61;94936.25;5050703;28;20191;-44
2023/09/05 09:18:12;;;;;;;6.30;5.65;;;;;;;21.56;70.09;94915.84;5050369;28;20644;-42
2023/09/05 09:20:44;;;;;;;6.85;5.57;;;;;;;21.58;71.24;94932.03;5051452;28;20221;-43
2023/09/05 09:23:11;;;;;;;6.03;5.35;;;;;;;21.42;70.70;94925.44;5050895;28;20666;-45
2023/09/05 09:25:47;;;;;;;6.72;4.82;;;;;;;21.33;70.84;94908.44;5050949;28;20219;-44
2023/09/05 09:28:22;;;;;;;8.07;4.93;;;;;;;21.29;70.22;94925.41;5050616;28;20655;-44
2023/09/05 09:30:56;;;;;;;5.45;4.95;;;;;;;21.34;70.66;94917.84;5050750;28;20292;-44
2023/09/05 09:33:23;;;;;;;5.57;5.03;;;;;;;21.22;69.91;94920.19;5050674;28;20729;-43
2023/09/05 09:36:05;;;;;;;5.20;4.70;;;;;;;21.08;70.59;94918.56;5051081;28;20186;-44
2023/09/05 09:38:32;;;;;;;6.55;5.25;;;;;;;21.00;71.04;94900.53;5050355;28;20225;-43
2023/09/05 09:41:01;;;;;;;6.50;5.00;;;;;;;20.97;69.63;94912.13;5050393;28;20205;-45
2023/09/05 09:43:29;;;;;;;6.40;4.88;;;;;;;21.12;69.70;94916.38;5050269;28;20562;-44
2023/09/05 09:45:57;;;;;;;5.13;4.63;;;;;;;21.04;69.63;94905.16;5050629;28;20234;-44
2023/09/05 09:48:27;;;;;;;5.53;4.70;;;;;;;21.04;69.59;94923.34;5050393;28;20191;-45
2023/09/05 09:50:55;;;;;;;11.90;5.25;;;;;;;20.60;70.13;94845.84;5050732;28;20183;-44
2023/09/05 09:53:34;;;;;;;6.57;5.30;;;;;;;21.15;69.42;94905.56;5050107;28;20195;-43
2023/09/05 09:56:04;;;;;;;5.13;4.60;;;;;;;21.13;69.69;94899.75;5050673;28;20189;-45
2023/09/05 09:58:32;;;;;;;6.18;4.78;;;;;;;21.18;70.31;94897.38;5050485;28;20635;-44
2023/09/05 10:01:00;;;;;;;12.45;5.13;;;;;;;21.12;69.93;94890.38;5050602;28;20183;-46
2023/09/05 10:03:28;;;;;;;6.28;4.60;;;;;;;20.98;70.32;94874.75;5050131;28;20274;-45
2023/09/05 10:05:57;;;;;;;5.68;4.25;;;;;;;21.09;68.81;94901.16;5050115;28;20215;-45
2023/09/05 10:08:28;;;;;;;4.68;4.28;;;;;;;20.22;68.27;94747.59;5049869;28;20237;-45
2023/09/05 10:10:55;;;;;;;6.45;4.28;;;;;;;21.26;67.47;94853.75;5050079;28;20205;-46
2023/09/05 10:13:27;;;;;;;4.22;3.88;;;;;;;21.48;65.83;94875.19;5049836;28;20234;-44
2023/09/05 10:15:55;;;;;;;4.88;4.35;;;;;;;21.71;64.11;94882.59;5050173;28;20203;-44
2023/09/05 10:18:23;;;;;;;4.65;4.13;;;;;;;21.79;63.30;94895.41;5049769;28;20187;-45
2023/09/05 10:20:52;;;;;;;6.30;3.88;;;;;;;21.88;63.78;94895.19;5050030;28;20651;-45
2023/09/05 10:23:19;;;;;;;4.60;3.85;;;;;;;21.89;64.59;94886.38;5050207;28;20194;-45
2023/09/05 10:25:49;;;;;;;11.10;4.38;;;;;;;22.11;63.55;94890.34;5049709;28;20575;-45
2023/09/05 10:28:16;;;;;;;3.35;3.10;;;;;;;22.26;62.23;94900.56;5049727;28;20666;-46
2023/09/05 10:30:49;;;;;;;7.25;3.92;;;;;;;22.27;62.41;94882.09;5049620;28;20234;-42
2023/09/05 10:33:17;;;;;;;4.10;3.70;;;;;;;22.38;63.06;94890.31;5050246;28;20187;-46
2023/09/05 10:35:45;;;;;;;8.63;4.43;;;;;;;22.34;62.66;94892.50;5049295;28;20215;-45
2023/09/05 10:38:13;;;;;;;4.90;3.70;;;;;;;22.34;63.26;94904.75;5049945;28;20260;-45
2023/09/05 10:40:41;;;;;;;7.30;4.25;;;;;;;22.30;62.24;94880.91;5049820;28;20198;-45
2023/09/05 10:43:15;;;;;;;6.45;3.95;;;;;;;22.26;61.94;94880.50;5049898;28;20187;-50
2023/09/05 10:45:42;;;;;;;6.57;4.28;;;;;;;22.40;61.93;94899.50;5049455;28;20198;-45
2023/09/05 10:48:15;;;;;;;4.65;3.97;;;;;;;22.52;62.42;94903.06;5049475;28;20296;-43
2023/09/05 10:51:11;;;;;;;5.05;4.15;;;;;;;22.56;62.00;94902.66;5049254;28;20210;-45
2023/09/05 10:53:39;;;;;;;8.07;4.10;;;;;;;22.56;61.91;94913.09;5049567;28;20213;-46
2023/09/05 10:56:07;;;;;;;4.18;3.78;;;;;;;22.46;61.16;94898.69;5049518;28;20202;-44
2023/09/05 10:58:43;;;;;;;7.28;4.47;;;;;;;22.53;61.32;94898.66;5049090;28;20201;-43
2023/09/05 11:01:54;;;;;;;6.88;4.05;;;;;;;22.59;61.50;94902.25;5049363;28;20201;-44
2023/09/05 11:04:34;;;;;;;5.22;3.63;;;;;;;22.60;60.87;94896.03;4968010;28;20197;-44
2023/09/05 11:07:06;;;;;;;4.63;3.88;;;;;;;22.50;61.58;94867.81;4968140;28;20229;-45
2023/09/05 11:09:48;;;;;;;7.40;3.95;;;;;;;22.60;61.83;94896.84;4968346;28;20729;-45
2023/09/05 11:12:15;;;;;;;13.52;3.50;;;;;;;22.65;61.81;94896.22;4968209;28;20189;-45
2023/09/05 11:14:44;;;;;;;5.35;3.90;;;;;;;22.62;61.38;94894.81;4968001;28;20194;-44
2023/09/05 11:17:15;;;;;;;3.58;3.28;;;;;;;22.68;61.11;94888.78;4968055;28;20190;-43
2023/09/05 11:19:47;;;;;;;3.78;3.47;;;;;;;22.50;61.32;94893.88;4968375;28;20185;-44
2023/09/05 11:22:21;;;;;;;7.15;3.75;;;;;;;22.36;61.31;94887.88;4968061;28;20685;-44
2023/09/05 11:24:49;;;;;;;5.40;4.03;;;;;;;22.22;61.28;94853.25;4968331;28;20272;-45
2023/09/05 11:27:20;;;;;;;4.82;3.50;;;;;;;22.44;60.86;94898.09;4968078;28;20273;-43
2023/09/05 11:29:51;;;;;;;4.90;3.80;;;;;;;22.52;60.60;94884.81;4968060;28;20973;-44
2023/09/05 11:32:19;;;;;;;4.72;3.97;;;;;;;22.66;59.92;94888.16;4967802;28;20293;-44
2023/09/05 11:34:47;;;;;;;8.45;3.78;;;;;;;22.82;59.62;94880.88;4968172;28;20193;-43